sensor_id;sensor_type;location;lat;lon;timestamp;P1;durP1;ratioP1;P2;durP2;ratioP2
78416;SDS011;67715;46.170;6.140;2023-12-20T00:00:54;13.33;;;7.17;;
78416;SDS011;67715;46.170;6.140;2023-12-20T00:03:19;13.70;;;7.77;;
78416;SDS011;67715;46.170;6.140;2023-12-20T00:05:45;15.07;;;7.30;;
78416;SDS011;67715;46.170;6.140;2023-12-20T00:08:10;14.40;;;8.00;;
78416;SDS011;67715;46.170;6.140;2023-12-20T00:10:36;16.15;;;7.90;;
78416;SDS011;67715;46.170;6.140;2023-12-20T00:13:01;16.00;;;7.97;;
78416;SDS011;67715;46.170;6.140;2023-12-20T00:15:26;14.50;;;7.63;;
78416;SDS011;67715;46.170;6.140;2023-12-20T00:17:52;15.20;;;8.23;;
78416;SDS011;67715;46.170;6.140;2023-12-20T00:20:17;17.77;;;8.20;;
78416;SDS011;67715;46.170;6.140;2023-12-20T00:22:42;15.33;;;8.03;;
78416;SDS011;67715;46.170;6.140;2023-12-20T00:25:07;13.87;;;7.40;;
78416;SDS011;67715;46.170;6.140;2023-12-20T00:27:33;15.03;;;7.23;;
78416;SDS011;67715;46.170;6.140;2023-12-20T00:29:58;14.73;;;7.73;;
78416;SDS011;67715;46.170;6.140;2023-12-20T00:32:23;13.07;;;7.47;;
78416;SDS011;67715;46.170;6.140;2023-12-20T00:34:49;14.20;;;8.00;;
78416;SDS011;67715;46.170;6.140;2023-12-20T00:37:14;12.17;;;6.83;;
78416;SDS011;67715;46.170;6.140;2023-12-20T00:39:39;14.93;;;7.17;;
78416;SDS011;67715;46.170;6.140;2023-12-20T00:42:05;13.80;;;7.00;;
78416;SDS011;67715;46.170;6.140;2023-12-20T00:44:30;14.03;;;7.57;;
78416;SDS011;67715;46.170;6.140;2023-12-20T00:46:55;13.40;;;6.80;;
78416;SDS011;67715;46.170;6.140;2023-12-20T00:49:20;12.97;;;7.50;;
78416;SDS011;67715;46.170;6.140;2023-12-20T00:51:46;12.90;;;7.90;;
78416;SDS011;67715;46.170;6.140;2023-12-20T00:54:12;14.05;;;7.68;;
78416;SDS011;67715;46.170;6.140;2023-12-20T00:56:38;14.25;;;7.32;;
78416;SDS011;67715;46.170;6.140;2023-12-20T00:59:03;11.07;;;6.97;;
78416;SDS011;67715;46.170;6.140;2023-12-20T01:01:29;14.63;;;7.03;;
78416;SDS011;67715;46.170;6.140;2023-12-20T01:03:54;15.37;;;8.20;;
78416;SDS011;67715;46.170;6.140;2023-12-20T01:06:20;14.50;;;7.85;;
78416;SDS011;67715;46.170;6.140;2023-12-20T01:08:45;13.77;;;7.25;;
78416;SDS011;67715;46.170;6.140;2023-12-20T01:11:11;14.77;;;6.72;;
78416;SDS011;67715;46.170;6.140;2023-12-20T01:13:36;12.90;;;6.97;;
78416;SDS011;67715;46.170;6.140;2023-12-20T01:16:02;12.30;;;6.88;;
78416;SDS011;67715;46.170;6.140;2023-12-20T01:18:27;18.05;;;8.23;;
78416;SDS011;67715;46.170;6.140;2023-12-20T01:20:53;17.87;;;7.77;;
78416;SDS011;67715;46.170;6.140;2023-12-20T01:23:18;12.67;;;7.10;;
78416;SDS011;67715;46.170;6.140;2023-12-20T01:25:43;15.83;;;8.27;;
78416;SDS011;67715;46.170;6.140;2023-12-20T01:28:08;13.13;;;7.27;;
78416;SDS011;67715;46.170;6.140;2023-12-20T01:30:34;14.23;;;8.10;;
78416;SDS011;67715;46.170;6.140;2023-12-20T01:33:00;13.15;;;7.05;;
78416;SDS011;67715;46.170;6.140;2023-12-20T01:35:25;11.88;;;7.55;;
78416;SDS011;67715;46.170;6.140;2023-12-20T01:37:50;13.03;;;6.87;;
78416;SDS011;67715;46.170;6.140;2023-12-20T01:40:16;11.23;;;6.80;;
78416;SDS011;67715;46.170;6.140;2023-12-20T01:42:41;11.90;;;6.90;;
78416;SDS011;67715;46.170;6.140;2023-12-20T01:45:07;12.57;;;6.47;;
78416;SDS011;67715;46.170;6.140;2023-12-20T01:47:32;14.15;;;7.07;;
78416;SDS011;67715;46.170;6.140;2023-12-20T01:49:58;9.95;;;6.55;;
78416;SDS011;67715;46.170;6.140;2023-12-20T01:52:24;12.65;;;6.80;;
78416;SDS011;67715;46.170;6.140;2023-12-20T01:54:50;10.50;;;6.15;;
78416;SDS011;67715;46.170;6.140;2023-12-20T01:57:16;13.52;;;7.78;;
78416;SDS011;67715;46.170;6.140;2023-12-20T01:59:41;12.30;;;7.20;;
78416;SDS011;67715;46.170;6.140;2023-12-20T02:02:06;11.83;;;7.43;;
78416;SDS011;67715;46.170;6.140;2023-12-20T02:04:32;13.63;;;7.32;;
78416;SDS011;67715;46.170;6.140;2023-12-20T02:06:57;11.10;;;7.07;;
78416;SDS011;67715;46.170;6.140;2023-12-20T02:09:24;14.45;;;6.90;;
78416;SDS011;67715;46.170;6.140;2023-12-20T02:11:49;12.07;;;6.88;;
78416;SDS011;67715;46.170;6.140;2023-12-20T02:14:14;9.43;;;6.83;;
78416;SDS011;67715;46.170;6.140;2023-12-20T02:16:40;12.45;;;6.55;;
78416;SDS011;67715;46.170;6.140;2023-12-20T02:19:05;10.48;;;6.47;;
78416;SDS011;67715;46.170;6.140;2023-12-20T02:21:37;14.55;;;7.28;;
78416;SDS011;67715;46.170;6.140;2023-12-20T02:24:02;12.23;;;6.57;;
78416;SDS011;67715;46.170;6.140;2023-12-20T02:26:28;13.25;;;7.57;;
78416;SDS011;67715;46.170;6.140;2023-12-20T02:28:53;10.05;;;6.40;;
78416;SDS011;67715;46.170;6.140;2023-12-20T02:31:23;13.95;;;7.30;;
78416;SDS011;67715;46.170;6.140;2023-12-20T02:33:48;11.63;;;6.82;;
78416;SDS011;67715;46.170;6.140;2023-12-20T02:36:14;10.83;;;7.07;;
78416;SDS011;67715;46.170;6.140;2023-12-20T02:38:39;13.30;;;6.80;;
78416;SDS011;67715;46.170;6.140;2023-12-20T02:41:04;10.53;;;6.33;;
78416;SDS011;67715;46.170;6.140;2023-12-20T02:43:29;14.33;;;7.30;;
78416;SDS011;67715;46.170;6.140;2023-12-20T02:45:55;10.40;;;6.90;;
78416;SDS011;67715;46.170;6.140;2023-12-20T02:48:20;13.17;;;6.70;;
78416;SDS011;67715;46.170;6.140;2023-12-20T02:50:46;12.43;;;7.17;;
78416;SDS011;67715;46.170;6.140;2023-12-20T02:53:12;13.27;;;7.38;;
78416;SDS011;67715;46.170;6.140;2023-12-20T02:55:37;11.30;;;6.73;;
78416;SDS011;67715;46.170;6.140;2023-12-20T02:58:02;13.87;;;7.67;;
78416;SDS011;67715;46.170;6.140;2023-12-20T03:00:28;9.80;;;6.05;;
78416;SDS011;67715;46.170;6.140;2023-12-20T03:02:53;13.25;;;7.20;;
78416;SDS011;67715;46.170;6.140;2023-12-20T03:05:18;11.13;;;6.67;;
78416;SDS011;67715;46.170;6.140;2023-12-20T03:07:45;13.52;;;7.00;;
78416;SDS011;67715;46.170;6.140;2023-12-20T03:10:10;12.47;;;6.37;;
78416;SDS011;67715;46.170;6.140;2023-12-20T03:12:36;11.70;;;6.95;;
78416;SDS011;67715;46.170;6.140;2023-12-20T03:15:01;11.67;;;6.90;;
78416;SDS011;67715;46.170;6.140;2023-12-20T03:17:26;12.37;;;6.97;;
78416;SDS011;67715;46.170;6.140;2023-12-20T03:19:52;11.27;;;6.93;;
78416;SDS011;67715;46.170;6.140;2023-12-20T03:22:17;10.13;;;6.73;;
78416;SDS011;67715;46.170;6.140;2023-12-20T03:24:42;13.63;;;7.83;;
78416;SDS011;67715;46.170;6.140;2023-12-20T03:27:08;11.43;;;7.07;;
78416;SDS011;67715;46.170;6.140;2023-12-20T03:29:33;13.87;;;7.43;;
78416;SDS011;67715;46.170;6.140;2023-12-20T03:31:58;11.90;;;6.67;;
78416;SDS011;67715;46.170;6.140;2023-12-20T03:34:24;14.20;;;7.70;;
78416;SDS011;67715;46.170;6.140;2023-12-20T03:36:49;16.40;;;8.63;;
78416;SDS011;67715;46.170;6.140;2023-12-20T03:39:14;11.73;;;7.50;;
78416;SDS011;67715;46.170;6.140;2023-12-20T03:41:39;17.07;;;7.97;;
78416;SDS011;67715;46.170;6.140;2023-12-20T03:44:05;14.00;;;8.57;;
78416;SDS011;67715;46.170;6.140;2023-12-20T03:46:30;12.25;;;7.60;;
78416;SDS011;67715;46.170;6.140;2023-12-20T03:48:56;13.35;;;6.68;;
78416;SDS011;67715;46.170;6.140;2023-12-20T03:51:23;12.45;;;7.70;;
78416;SDS011;67715;46.170;6.140;2023-12-20T03:53:48;13.77;;;7.40;;
78416;SDS011;67715;46.170;6.140;2023-12-20T03:56:13;13.50;;;7.53;;
78416;SDS011;67715;46.170;6.140;2023-12-20T03:58:39;13.90;;;7.73;;
78416;SDS011;67715;46.170;6.140;2023-12-20T04:01:08;17.97;;;10.13;;
78416;SDS011;67715;46.170;6.140;2023-12-20T04:03:35;14.73;;;8.15;;
78416;SDS011;67715;46.170;6.140;2023-12-20T04:06:00;12.90;;;8.07;;
78416;SDS011;67715;46.170;6.140;2023-12-20T04:08:25;14.93;;;8.13;;
78416;SDS011;67715;46.170;6.140;2023-12-20T04:10:51;11.60;;;7.30;;
78416;SDS011;67715;46.170;6.140;2023-12-20T04:13:16;16.23;;;9.38;;
78416;SDS011;67715;46.170;6.140;2023-12-20T04:15:41;11.90;;;7.40;;
78416;SDS011;67715;46.170;6.140;2023-12-20T04:18:07;12.63;;;8.23;;
78416;SDS011;67715;46.170;6.140;2023-12-20T04:20:32;14.03;;;8.47;;
78416;SDS011;67715;46.170;6.140;2023-12-20T04:22:57;15.20;;;8.33;;
78416;SDS011;67715;46.170;6.140;2023-12-20T04:25:23;12.50;;;7.90;;
78416;SDS011;67715;46.170;6.140;2023-12-20T04:27:48;11.93;;;8.00;;
78416;SDS011;67715;46.170;6.140;2023-12-20T04:30:13;15.13;;;7.80;;
78416;SDS011;67715;46.170;6.140;2023-12-20T04:32:38;13.87;;;7.83;;
78416;SDS011;67715;46.170;6.140;2023-12-20T04:35:04;13.97;;;8.27;;
78416;SDS011;67715;46.170;6.140;2023-12-20T04:37:29;13.10;;;7.72;;
78416;SDS011;67715;46.170;6.140;2023-12-20T04:39:55;14.80;;;8.10;;
78416;SDS011;67715;46.170;6.140;2023-12-20T04:42:20;13.27;;;7.70;;
78416;SDS011;67715;46.170;6.140;2023-12-20T04:44:45;13.33;;;7.67;;
78416;SDS011;67715;46.170;6.140;2023-12-20T04:47:11;14.87;;;8.43;;
78416;SDS011;67715;46.170;6.140;2023-12-20T04:49:36;14.07;;;8.57;;
78416;SDS011;67715;46.170;6.140;2023-12-20T04:52:01;15.67;;;9.57;;
78416;SDS011;67715;46.170;6.140;2023-12-20T04:54:27;15.13;;;8.13;;
78416;SDS011;67715;46.170;6.140;2023-12-20T04:56:52;15.20;;;9.00;;
78416;SDS011;67715;46.170;6.140;2023-12-20T04:59:17;13.77;;;8.03;;
78416;SDS011;67715;46.170;6.140;2023-12-20T05:01:42;14.77;;;8.33;;
78416;SDS011;67715;46.170;6.140;2023-12-20T05:04:08;16.00;;;8.13;;
78416;SDS011;67715;46.170;6.140;2023-12-20T05:06:33;18.70;;;9.50;;
78416;SDS011;67715;46.170;6.140;2023-12-20T05:08:58;14.23;;;9.20;;
78416;SDS011;67715;46.170;6.140;2023-12-20T05:11:24;15.53;;;7.93;;
78416;SDS011;67715;46.170;6.140;2023-12-20T05:13:49;14.67;;;8.57;;
78416;SDS011;67715;46.170;6.140;2023-12-20T05:16:14;14.23;;;9.00;;
78416;SDS011;67715;46.170;6.140;2023-12-20T05:18:42;16.92;;;9.50;;
78416;SDS011;67715;46.170;6.140;2023-12-20T05:21:08;21.67;;;9.32;;
78416;SDS011;67715;46.170;6.140;2023-12-20T05:23:33;19.17;;;10.00;;
78416;SDS011;67715;46.170;6.140;2023-12-20T05:25:58;22.50;;;10.27;;
78416;SDS011;67715;46.170;6.140;2023-12-20T05:28:24;16.67;;;10.13;;
78416;SDS011;67715;46.170;6.140;2023-12-20T05:30:49;20.25;;;10.25;;
78416;SDS011;67715;46.170;6.140;2023-12-20T05:33:14;21.37;;;9.73;;
78416;SDS011;67715;46.170;6.140;2023-12-20T05:35:40;15.70;;;9.43;;
78416;SDS011;67715;46.170;6.140;2023-12-20T05:38:05;21.50;;;9.40;;
78416;SDS011;67715;46.170;6.140;2023-12-20T05:40:31;15.68;;;9.65;;
78416;SDS011;67715;46.170;6.140;2023-12-20T05:42:56;16.70;;;9.03;;
78416;SDS011;67715;46.170;6.140;2023-12-20T05:45:21;17.73;;;8.33;;
78416;SDS011;67715;46.170;6.140;2023-12-20T05:47:47;14.37;;;8.80;;
78416;SDS011;67715;46.170;6.140;2023-12-20T05:50:12;12.47;;;7.83;;
78416;SDS011;67715;46.170;6.140;2023-12-20T05:52:37;16.87;;;9.27;;
78416;SDS011;67715;46.170;6.140;2023-12-20T05:55:02;15.93;;;9.80;;
78416;SDS011;67715;46.170;6.140;2023-12-20T05:57:28;14.32;;;8.32;;
78416;SDS011;67715;46.170;6.140;2023-12-20T05:59:53;20.77;;;9.90;;
78416;SDS011;67715;46.170;6.140;2023-12-20T06:02:18;14.57;;;9.07;;
78416;SDS011;67715;46.170;6.140;2023-12-20T06:04:44;18.63;;;8.87;;
78416;SDS011;67715;46.170;6.140;2023-12-20T06:07:13;20.63;;;9.35;;
78416;SDS011;67715;46.170;6.140;2023-12-20T06:09:38;16.88;;;9.52;;
78416;SDS011;67715;46.170;6.140;2023-12-20T06:12:04;16.77;;;11.20;;
78416;SDS011;67715;46.170;6.140;2023-12-20T06:14:29;22.90;;;11.45;;
78416;SDS011;67715;46.170;6.140;2023-12-20T06:16:55;18.52;;;11.40;;
78416;SDS011;67715;46.170;6.140;2023-12-20T06:19:21;21.42;;;12.07;;
78416;SDS011;67715;46.170;6.140;2023-12-20T06:21:46;20.30;;;11.33;;
78416;SDS011;67715;46.170;6.140;2023-12-20T06:24:11;20.70;;;11.50;;
78416;SDS011;67715;46.170;6.140;2023-12-20T06:26:37;22.90;;;11.30;;
78416;SDS011;67715;46.170;6.140;2023-12-20T06:29:02;17.70;;;10.43;;
78416;SDS011;67715;46.170;6.140;2023-12-20T06:31:27;20.57;;;11.53;;
78416;SDS011;67715;46.170;6.140;2023-12-20T06:33:53;17.00;;;9.75;;
78416;SDS011;67715;46.170;6.140;2023-12-20T06:36:22;18.40;;;10.88;;
78416;SDS011;67715;46.170;6.140;2023-12-20T06:38:48;17.70;;;10.85;;
78416;SDS011;67715;46.170;6.140;2023-12-20T06:41:13;22.07;;;11.23;;
78416;SDS011;67715;46.170;6.140;2023-12-20T06:43:39;19.00;;;12.13;;
78416;SDS011;67715;46.170;6.140;2023-12-20T06:46:05;22.70;;;11.35;;
78416;SDS011;67715;46.170;6.140;2023-12-20T06:48:31;19.67;;;10.93;;
78416;SDS011;67715;46.170;6.140;2023-12-20T06:50:56;19.00;;;9.85;;
78416;SDS011;67715;46.170;6.140;2023-12-20T06:53:21;16.37;;;9.80;;
78416;SDS011;67715;46.170;6.140;2023-12-20T06:55:47;16.73;;;9.77;;
78416;SDS011;67715;46.170;6.140;2023-12-20T06:58:12;21.00;;;10.70;;
78416;SDS011;67715;46.170;6.140;2023-12-20T07:00:37;19.20;;;9.87;;
78416;SDS011;67715;46.170;6.140;2023-12-20T07:03:03;17.70;;;10.17;;
78416;SDS011;67715;46.170;6.140;2023-12-20T07:05:28;17.50;;;9.93;;
78416;SDS011;67715;46.170;6.140;2023-12-20T07:07:54;18.37;;;10.23;;
78416;SDS011;67715;46.170;6.140;2023-12-20T07:10:19;18.30;;;10.20;;
78416;SDS011;67715;46.170;6.140;2023-12-20T07:12:44;19.20;;;10.43;;
78416;SDS011;67715;46.170;6.140;2023-12-20T07:15:10;18.60;;;10.15;;
78416;SDS011;67715;46.170;6.140;2023-12-20T07:17:36;17.05;;;9.65;;
78416;SDS011;67715;46.170;6.140;2023-12-20T07:20:01;21.95;;;11.65;;
78416;SDS011;67715;46.170;6.140;2023-12-20T07:22:29;26.10;;;13.02;;
78416;SDS011;67715;46.170;6.140;2023-12-20T07:24:56;20.77;;;12.50;;
78416;SDS011;67715;46.170;6.140;2023-12-20T07:27:22;18.55;;;11.43;;
78416;SDS011;67715;46.170;6.140;2023-12-20T07:29:47;22.40;;;11.53;;
78416;SDS011;67715;46.170;6.140;2023-12-20T07:32:12;18.53;;;10.50;;
78416;SDS011;67715;46.170;6.140;2023-12-20T07:34:38;19.47;;;10.93;;
78416;SDS011;67715;46.170;6.140;2023-12-20T07:37:03;21.03;;;12.70;;
78416;SDS011;67715;46.170;6.140;2023-12-20T07:39:29;21.88;;;12.32;;
78416;SDS011;67715;46.170;6.140;2023-12-20T07:41:54;21.20;;;11.97;;
78416;SDS011;67715;46.170;6.140;2023-12-20T07:44:19;24.63;;;12.07;;
78416;SDS011;67715;46.170;6.140;2023-12-20T07:46:44;20.63;;;11.87;;
78416;SDS011;67715;46.170;6.140;2023-12-20T07:49:10;19.53;;;10.57;;
78416;SDS011;67715;46.170;6.140;2023-12-20T07:51:36;20.48;;;11.00;;
78416;SDS011;67715;46.170;6.140;2023-12-20T07:54:01;18.40;;;10.43;;
78416;SDS011;67715;46.170;6.140;2023-12-20T07:56:28;19.48;;;11.18;;
78416;SDS011;67715;46.170;6.140;2023-12-20T07:58:53;22.87;;;11.57;;
78416;SDS011;67715;46.170;6.140;2023-12-20T08:01:19;18.40;;;11.93;;
78416;SDS011;67715;46.170;6.140;2023-12-20T08:03:44;15.25;;;9.55;;
78416;SDS011;67715;46.170;6.140;2023-12-20T08:06:10;21.47;;;11.10;;
78416;SDS011;67715;46.170;6.140;2023-12-20T08:08:35;20.47;;;11.47;;
78416;SDS011;67715;46.170;6.140;2023-12-20T08:11:00;23.67;;;11.03;;
78416;SDS011;67715;46.170;6.140;2023-12-20T08:13:26;19.33;;;11.63;;
78416;SDS011;67715;46.170;6.140;2023-12-20T08:15:52;24.95;;;12.73;;
78416;SDS011;67715;46.170;6.140;2023-12-20T08:18:18;29.13;;;12.57;;
78416;SDS011;67715;46.170;6.140;2023-12-20T08:20:43;22.02;;;11.88;;
78416;SDS011;67715;46.170;6.140;2023-12-20T08:23:09;24.20;;;11.60;;
78416;SDS011;67715;46.170;6.140;2023-12-20T08:25:34;21.73;;;12.43;;
78416;SDS011;67715;46.170;6.140;2023-12-20T08:27:59;24.83;;;11.67;;
78416;SDS011;67715;46.170;6.140;2023-12-20T08:30:24;24.30;;;11.80;;
78416;SDS011;67715;46.170;6.140;2023-12-20T08:32:50;23.33;;;12.30;;
78416;SDS011;67715;46.170;6.140;2023-12-20T08:35:16;23.15;;;11.95;;
78416;SDS011;67715;46.170;6.140;2023-12-20T08:37:43;25.60;;;14.18;;
78416;SDS011;67715;46.170;6.140;2023-12-20T08:40:08;19.52;;;11.77;;
78416;SDS011;67715;46.170;6.140;2023-12-20T08:42:34;21.30;;;11.48;;
78416;SDS011;67715;46.170;6.140;2023-12-20T08:44:59;24.85;;;12.48;;
78416;SDS011;67715;46.170;6.140;2023-12-20T08:47:24;22.83;;;12.57;;
78416;SDS011;67715;46.170;6.140;2023-12-20T08:49:50;21.42;;;10.68;;
78416;SDS011;67715;46.170;6.140;2023-12-20T08:52:15;21.75;;;11.82;;
78416;SDS011;67715;46.170;6.140;2023-12-20T08:54:40;19.43;;;11.93;;
78416;SDS011;67715;46.170;6.140;2023-12-20T08:57:06;22.33;;;11.57;;
78416;SDS011;67715;46.170;6.140;2023-12-20T08:59:32;22.77;;;11.40;;
78416;SDS011;67715;46.170;6.140;2023-12-20T09:01:57;23.15;;;12.02;;
78416;SDS011;67715;46.170;6.140;2023-12-20T09:04:22;20.27;;;11.33;;
78416;SDS011;67715;46.170;6.140;2023-12-20T09:06:48;26.83;;;13.07;;
78416;SDS011;67715;46.170;6.140;2023-12-20T09:09:13;21.73;;;12.13;;
78416;SDS011;67715;46.170;6.140;2023-12-20T09:11:39;20.88;;;12.38;;
78416;SDS011;67715;46.170;6.140;2023-12-20T09:14:04;23.23;;;12.27;;
78416;SDS011;67715;46.170;6.140;2023-12-20T09:16:30;21.30;;;11.55;;
78416;SDS011;67715;46.170;6.140;2023-12-20T09:18:56;20.83;;;11.63;;
78416;SDS011;67715;46.170;6.140;2023-12-20T09:21:21;23.37;;;13.30;;
78416;SDS011;67715;46.170;6.140;2023-12-20T09:23:47;22.40;;;13.00;;
78416;SDS011;67715;46.170;6.140;2023-12-20T09:26:12;21.77;;;11.57;;
78416;SDS011;67715;46.170;6.140;2023-12-20T09:28:37;21.07;;;12.00;;
78416;SDS011;67715;46.170;6.140;2023-12-20T09:31:04;28.20;;;12.77;;
78416;SDS011;67715;46.170;6.140;2023-12-20T09:33:30;21.63;;;12.43;;
78416;SDS011;67715;46.170;6.140;2023-12-20T09:35:55;20.67;;;12.33;;
78416;SDS011;67715;46.170;6.140;2023-12-20T09:38:21;22.90;;;13.43;;
78416;SDS011;67715;46.170;6.140;2023-12-20T09:40:47;20.85;;;11.95;;
78416;SDS011;67715;46.170;6.140;2023-12-20T09:43:15;23.58;;;12.40;;
78416;SDS011;67715;46.170;6.140;2023-12-20T09:45:45;24.58;;;13.13;;
78416;SDS011;67715;46.170;6.140;2023-12-20T09:48:11;21.45;;;11.68;;
78416;SDS011;67715;46.170;6.140;2023-12-20T09:50:39;19.88;;;12.27;;
78416;SDS011;67715;46.170;6.140;2023-12-20T09:53:05;23.10;;;12.77;;
78416;SDS011;67715;46.170;6.140;2023-12-20T09:55:34;23.10;;;13.25;;
78416;SDS011;67715;46.170;6.140;2023-12-20T09:58:00;22.83;;;11.98;;
78416;SDS011;67715;46.170;6.140;2023-12-20T10:00:26;20.40;;;12.63;;
78416;SDS011;67715;46.170;6.140;2023-12-20T10:05:30;26.00;;;13.35;;
78416;SDS011;67715;46.170;6.140;2023-12-20T10:07:56;20.25;;;11.88;;
78416;SDS011;67715;46.170;6.140;2023-12-20T10:10:22;22.92;;;13.13;;
78416;SDS011;67715;46.170;6.140;2023-12-20T10:15:27;24.98;;;14.15;;
78416;SDS011;67715;46.170;6.140;2023-12-20T10:17:53;21.92;;;12.60;;
78416;SDS011;67715;46.170;6.140;2023-12-20T10:20:19;26.30;;;14.30;;
78416;SDS011;67715;46.170;6.140;2023-12-20T10:22:45;26.58;;;14.02;;
78416;SDS011;67715;46.170;6.140;2023-12-20T10:25:11;21.85;;;13.63;;
78416;SDS011;67715;46.170;6.140;2023-12-20T10:27:36;24.10;;;13.50;;
78416;SDS011;67715;46.170;6.140;2023-12-20T10:30:02;27.50;;;14.10;;
78416;SDS011;67715;46.170;6.140;2023-12-20T10:32:27;28.52;;;14.30;;
78416;SDS011;67715;46.170;6.140;2023-12-20T10:34:53;25.60;;;13.70;;
78416;SDS011;67715;46.170;6.140;2023-12-20T10:37:19;24.48;;;14.07;;
78416;SDS011;67715;46.170;6.140;2023-12-20T10:39:48;26.38;;;13.98;;
78416;SDS011;67715;46.170;6.140;2023-12-20T10:42:15;22.77;;;13.63;;
78416;SDS011;67715;46.170;6.140;2023-12-20T10:44:41;19.65;;;12.38;;
78416;SDS011;67715;46.170;6.140;2023-12-20T10:47:06;23.23;;;13.17;;
78416;SDS011;67715;46.170;6.140;2023-12-20T10:49:31;27.00;;;14.17;;
78416;SDS011;67715;46.170;6.140;2023-12-20T10:52:01;26.40;;;14.73;;
78416;SDS011;67715;46.170;6.140;2023-12-20T10:54:27;24.05;;;14.20;;
78416;SDS011;67715;46.170;6.140;2023-12-20T10:56:53;28.67;;;16.13;;
78416;SDS011;67715;46.170;6.140;2023-12-20T10:59:19;26.75;;;14.63;;
78416;SDS011;67715;46.170;6.140;2023-12-20T11:01:45;24.98;;;15.07;;
78416;SDS011;67715;46.170;6.140;2023-12-20T11:04:14;24.77;;;14.88;;
78416;SDS011;67715;46.170;6.140;2023-12-20T11:11:59;24.95;;;13.75;;
78416;SDS011;67715;46.170;6.140;2023-12-20T11:17:18;26.67;;;13.70;;
78416;SDS011;67715;46.170;6.140;2023-12-20T11:22:20;25.77;;;14.55;;
78416;SDS011;67715;46.170;6.140;2023-12-20T11:24:46;22.48;;;14.07;;
78416;SDS011;67715;46.170;6.140;2023-12-20T11:27:13;25.33;;;14.70;;
78416;SDS011;67715;46.170;6.140;2023-12-20T11:29:39;27.23;;;14.40;;
78416;SDS011;67715;46.170;6.140;2023-12-20T11:34:50;25.45;;;14.45;;
78416;SDS011;67715;46.170;6.140;2023-12-20T11:37:16;26.35;;;14.90;;
78416;SDS011;67715;46.170;6.140;2023-12-20T11:39:42;32.13;;;16.00;;
78416;SDS011;67715;46.170;6.140;2023-12-20T11:42:08;24.92;;;14.48;;
78416;SDS011;67715;46.170;6.140;2023-12-20T11:44:35;26.33;;;15.38;;
78416;SDS011;67715;46.170;6.140;2023-12-20T11:47:01;28.52;;;16.02;;
78416;SDS011;67715;46.170;6.140;2023-12-20T11:49:26;27.35;;;15.07;;
78416;SDS011;67715;46.170;6.140;2023-12-20T11:51:54;24.92;;;15.00;;
78416;SDS011;67715;46.170;6.140;2023-12-20T11:54:19;27.75;;;14.93;;
78416;SDS011;67715;46.170;6.140;2023-12-20T11:56:45;22.73;;;13.40;;
78416;SDS011;67715;46.170;6.140;2023-12-20T11:59:11;23.73;;;13.27;;
78416;SDS011;67715;46.170;6.140;2023-12-20T12:01:36;23.30;;;13.97;;
78416;SDS011;67715;46.170;6.140;2023-12-20T12:04:05;24.77;;;14.18;;
78416;SDS011;67715;46.170;6.140;2023-12-20T12:06:31;21.50;;;12.90;;
78416;SDS011;67715;46.170;6.140;2023-12-20T12:08:56;22.52;;;13.05;;
78416;SDS011;67715;46.170;6.140;2023-12-20T12:11:22;24.55;;;13.20;;
78416;SDS011;67715;46.170;6.140;2023-12-20T12:13:47;21.67;;;11.60;;
78416;SDS011;67715;46.170;6.140;2023-12-20T12:16:16;16.98;;;10.90;;
78416;SDS011;67715;46.170;6.140;2023-12-20T12:18:45;18.33;;;11.43;;
78416;SDS011;67715;46.170;6.140;2023-12-20T12:21:10;22.97;;;13.07;;
78416;SDS011;67715;46.170;6.140;2023-12-20T12:23:35;22.15;;;12.45;;
78416;SDS011;67715;46.170;6.140;2023-12-20T12:26:03;21.73;;;13.15;;
78416;SDS011;67715;46.170;6.140;2023-12-20T12:28:29;21.63;;;12.75;;
78416;SDS011;67715;46.170;6.140;2023-12-20T12:30:57;21.52;;;12.35;;
78416;SDS011;67715;46.170;6.140;2023-12-20T12:33:24;23.98;;;13.93;;
78416;SDS011;67715;46.170;6.140;2023-12-20T12:35:52;22.08;;;14.05;;
78416;SDS011;67715;46.170;6.140;2023-12-20T12:38:21;19.67;;;12.23;;
78416;SDS011;67715;46.170;6.140;2023-12-20T12:40:46;15.80;;;9.35;;
78416;SDS011;67715;46.170;6.140;2023-12-20T12:43:12;15.45;;;9.10;;
78416;SDS011;67715;46.170;6.140;2023-12-20T12:45:37;15.63;;;9.50;;
78416;SDS011;67715;46.170;6.140;2023-12-20T12:48:03;14.02;;;8.70;;
78416;SDS011;67715;46.170;6.140;2023-12-20T12:50:28;15.65;;;9.55;;
78416;SDS011;67715;46.170;6.140;2023-12-20T12:52:55;17.02;;;9.85;;
78416;SDS011;67715;46.170;6.140;2023-12-20T12:55:20;20.50;;;10.30;;
78416;SDS011;67715;46.170;6.140;2023-12-20T12:57:45;17.80;;;9.53;;
78416;SDS011;67715;46.170;6.140;2023-12-20T13:00:11;17.50;;;9.15;;
78416;SDS011;67715;46.170;6.140;2023-12-20T13:02:36;15.30;;;9.27;;
78416;SDS011;67715;46.170;6.140;2023-12-20T13:05:03;16.80;;;9.32;;
78416;SDS011;67715;46.170;6.140;2023-12-20T13:07:29;15.15;;;9.02;;
78416;SDS011;67715;46.170;6.140;2023-12-20T13:09:54;13.60;;;8.73;;
78416;SDS011;67715;46.170;6.140;2023-12-20T13:12:20;13.63;;;8.73;;
78416;SDS011;67715;46.170;6.140;2023-12-20T13:14:46;13.43;;;8.20;;
78416;SDS011;67715;46.170;6.140;2023-12-20T13:17:12;12.85;;;7.85;;
78416;SDS011;67715;46.170;6.140;2023-12-20T13:19:37;13.90;;;8.18;;
78416;SDS011;67715;46.170;6.140;2023-12-20T13:22:02;11.13;;;7.43;;
78416;SDS011;67715;46.170;6.140;2023-12-20T13:24:28;7.93;;;5.53;;
78416;SDS011;67715;46.170;6.140;2023-12-20T13:26:54;6.40;;;4.82;;
78416;SDS011;67715;46.170;6.140;2023-12-20T13:29:19;7.55;;;5.40;;
78416;SDS011;67715;46.170;6.140;2023-12-20T13:31:45;9.37;;;5.57;;
78416;SDS011;67715;46.170;6.140;2023-12-20T13:34:10;8.70;;;5.67;;
78416;SDS011;67715;46.170;6.140;2023-12-20T13:36:36;11.27;;;5.93;;
78416;SDS011;67715;46.170;6.140;2023-12-20T13:39:01;8.90;;;4.88;;
78416;SDS011;67715;46.170;6.140;2023-12-20T13:41:28;7.32;;;4.95;;
78416;SDS011;67715;46.170;6.140;2023-12-20T13:43:53;6.77;;;5.00;;
78416;SDS011;67715;46.170;6.140;2023-12-20T13:46:19;7.25;;;4.55;;
78416;SDS011;67715;46.170;6.140;2023-12-20T13:48:44;5.67;;;4.00;;
78416;SDS011;67715;46.170;6.140;2023-12-20T13:51:10;7.75;;;4.28;;
78416;SDS011;67715;46.170;6.140;2023-12-20T13:53:35;7.63;;;4.00;;
78416;SDS011;67715;46.170;6.140;2023-12-20T13:56:00;6.67;;;3.57;;
78416;SDS011;67715;46.170;6.140;2023-12-20T13:58:26;7.00;;;4.00;;
78416;SDS011;67715;46.170;6.140;2023-12-20T14:00:51;5.50;;;3.80;;
78416;SDS011;67715;46.170;6.140;2023-12-20T14:03:16;8.00;;;3.93;;
78416;SDS011;67715;46.170;6.140;2023-12-20T14:05:42;6.55;;;3.78;;
78416;SDS011;67715;46.170;6.140;2023-12-20T14:08:07;7.10;;;3.97;;
78416;SDS011;67715;46.170;6.140;2023-12-20T14:10:33;6.05;;;3.05;;
78416;SDS011;67715;46.170;6.140;2023-12-20T14:12:58;3.60;;;1.57;;
78416;SDS011;67715;46.170;6.140;2023-12-20T14:15:23;5.80;;;2.50;;
78416;SDS011;67715;46.170;6.140;2023-12-20T14:17:50;2.72;;;2.13;;
78416;SDS011;67715;46.170;6.140;2023-12-20T14:20:15;3.15;;;1.70;;
78416;SDS011;67715;46.170;6.140;2023-12-20T14:22:41;3.75;;;1.63;;
78416;SDS011;67715;46.170;6.140;2023-12-20T14:25:12;3.08;;;1.73;;
78416;SDS011;67715;46.170;6.140;2023-12-20T14:27:38;2.17;;;1.42;;
78416;SDS011;67715;46.170;6.140;2023-12-20T14:30:04;3.05;;;1.70;;
78416;SDS011;67715;46.170;6.140;2023-12-20T14:32:31;2.83;;;1.50;;
78416;SDS011;67715;46.170;6.140;2023-12-20T14:34:56;2.38;;;1.20;;
78416;SDS011;67715;46.170;6.140;2023-12-20T14:37:22;1.65;;;1.10;;
78416;SDS011;67715;46.170;6.140;2023-12-20T14:39:47;1.70;;;1.10;;